createdAt,value
2023-02-08T00:00:15.268Z,84.15
2023-02-08T00:02:18.354Z,84.15
2023-02-08T00:04:22.836Z,84.20
2023-02-08T00:06:25.831Z,84.22
2023-02-08T00:08:28.991Z,84.11
2023-02-08T00:10:32.525Z,84.11
2023-02-08T00:12:35.581Z,84.18
2023-02-08T00:14:38.614Z,84.33
2023-02-08T00:16:41.653Z,84.07
2023-02-08T00:18:44.773Z,84.18
2023-02-08T00:20:49.240Z,84.11
2023-02-08T00:22:53.439Z,84.17
2023-02-08T00:24:56.580Z,84.20
2023-02-08T00:26:59.603Z,83.96
2023-02-08T00:29:02.705Z,84.05
2023-02-08T00:31:06.681Z,84.20
2023-02-08T00:33:11.016Z,84.04
2023-02-08T00:35:14.213Z,83.94
2023-02-08T00:37:19.163Z,84.04
2023-02-08T00:39:24.462Z,84.07
2023-02-08T00:41:28.250Z,84.10
2023-02-08T00:43:31.294Z,84.08
2023-02-08T00:45:34.877Z,84.08
2023-02-08T00:47:37.973Z,83.96
2023-02-08T00:49:40.994Z,84.06
2023-02-08T00:51:44.044Z,84.11
2023-02-08T00:53:49.287Z,84.11
2023-02-08T00:55:52.852Z,84.13
2023-02-08T00:57:55.966Z,84.06
2023-02-08T00:59:58.991Z,84.22
2023-02-08T01:02:02.125Z,83.82
2023-02-08T01:04:05.511Z,83.94
2023-02-08T01:06:11.714Z,84.02
2023-02-08T01:08:15.114Z,83.93
2023-02-08T01:10:19.534Z,83.96
2023-02-08T01:12:22.592Z,83.91
2023-02-08T01:14:26.095Z,83.91
2023-02-08T01:16:31.910Z,83.87
2023-02-08T01:18:36.609Z,83.88
2023-02-08T01:20:39.825Z,83.77
2023-02-08T01:22:43.042Z,83.95
2023-02-08T01:24:46.113Z,83.79
2023-02-08T01:26:50.517Z,83.93
2023-02-08T01:28:55.495Z,83.77
2023-02-08T01:30:59.331Z,83.95
2023-02-08T01:33:02.344Z,83.90
2023-02-08T01:35:05.905Z,84.03
2023-02-08T01:37:08.886Z,83.82
2023-02-08T01:39:12.762Z,83.96
2023-02-08T01:41:18.988Z,83.81
2023-02-08T01:43:26.452Z,83.85
2023-02-08T01:45:31.869Z,83.77
2023-02-08T01:47:35.034Z,83.78
2023-02-08T01:49:39.080Z,83.73
2023-02-08T01:51:46.772Z,83.70
2023-02-08T01:53:52.070Z,83.71
2023-02-08T01:55:58.587Z,83.73
2023-02-08T01:58:04.866Z,83.69
2023-02-08T02:00:15.198Z,83.76
2023-02-08T02:02:22.698Z,83.72
2023-02-08T02:04:27.384Z,83.77
2023-02-08T02:06:35.001Z,83.90
2023-02-08T02:08:39.271Z,83.92
2023-02-08T02:10:43.526Z,83.76
2023-02-08T02:12:47.452Z,84.06
2023-02-08T02:14:50.871Z,84.15
2023-02-08T02:16:55.302Z,83.96
2023-02-08T02:18:58.595Z,83.96
2023-02-08T02:21:41.040Z,84.00
2023-02-08T02:24:19.436Z,83.98
2023-02-08T02:27:03.924Z,83.94
2023-02-08T02:29:28.314Z,83.86
2023-02-08T02:31:57.634Z,83.87
2023-02-08T02:34:08.165Z,84.05
2023-02-08T02:36:22.289Z,84.10
2023-02-08T02:38:35.492Z,84.14
2023-02-08T02:40:50.997Z,83.94
2023-02-08T02:43:21.588Z,84.01
2023-02-08T02:45:32.181Z,83.84
2023-02-08T02:47:42.360Z,84.03
2023-02-08T02:49:51.882Z,84.04
2023-02-08T02:51:59.794Z,83.88
2023-02-08T02:54:09.583Z,83.89
2023-02-08T02:56:16.885Z,83.92
2023-02-08T02:58:25.933Z,83.83
2023-02-08T03:00:31.006Z,83.87
2023-02-08T03:02:34.039Z,83.82
2023-02-08T03:04:54.212Z,83.79
2023-02-08T03:07:07.078Z,83.96
2023-02-08T03:09:26.759Z,83.90
2023-02-08T03:11:34.041Z,83.81
2023-02-08T03:13:52.675Z,83.88
2023-02-08T03:16:04.409Z,83.88
2023-02-08T03:18:22.487Z,83.99
2023-02-08T03:20:31.854Z,83.86
2023-02-08T03:22:44.424Z,83.95
2023-02-08T03:24:55.259Z,83.88
2023-02-08T03:27:04.798Z,83.82
2023-02-08T03:29:15.771Z,83.79
2023-02-08T03:31:25.926Z,83.87
2023-02-08T03:33:36.264Z,83.70
2023-02-08T03:35:46.196Z,83.84
2023-02-08T03:37:55.165Z,83.85
2023-02-08T03:40:05.238Z,83.72
2023-02-08T03:42:16.172Z,83.62
2023-02-08T03:44:24.365Z,83.77
2023-02-08T03:46:30.821Z,83.66
2023-02-08T03:48:37.401Z,83.81
2023-02-08T03:50:45.288Z,83.68
2023-02-08T03:52:49.822Z,83.70
2023-02-08T03:54:56.586Z,83.68
2023-02-08T03:57:07.846Z,83.58
2023-02-08T03:59:15.983Z,83.67
2023-02-08T04:01:24.662Z,83.58
2023-02-08T04:03:31.557Z,83.77
2023-02-08T04:05:34.833Z,83.49
2023-02-08T04:07:39.377Z,83.63
2023-02-08T04:09:42.489Z,83.63
2023-02-08T04:11:45.516Z,83.73
2023-02-08T04:13:48.658Z,83.55
2023-02-08T04:15:51.697Z,83.37
2023-02-08T04:17:55.052Z,83.38
2023-02-08T04:19:58.134Z,83.32
2023-02-08T04:22:01.208Z,83.40
2023-02-08T04:24:05.837Z,83.35
2023-02-08T04:26:09.997Z,83.38
2023-02-08T04:28:13.095Z,83.45
2023-02-08T04:30:16.230Z,83.35
2023-02-08T04:32:19.363Z,83.38
2023-02-08T04:34:22.502Z,83.33
2023-02-08T04:36:25.617Z,83.47
2023-02-08T04:38:28.712Z,83.51
2023-02-08T04:40:33.371Z,83.40
2023-02-08T04:42:36.525Z,83.50
2023-02-08T04:44:39.622Z,83.43
2023-02-08T04:46:42.877Z,83.38
2023-02-08T04:48:46.075Z,83.40
2023-02-08T04:50:49.224Z,83.38
2023-02-08T04:52:52.280Z,83.41
2023-02-08T04:54:55.319Z,83.43
2023-02-08T04:56:59.718Z,83.40
2023-02-08T04:59:03.859Z,83.23
2023-02-08T05:01:08.328Z,83.22
2023-02-08T05:03:11.622Z,83.12
2023-02-08T05:05:14.775Z,83.19
2023-02-08T05:07:17.793Z,83.22
2023-02-08T05:09:20.817Z,83.25
2023-02-08T05:11:25.051Z,83.12
2023-02-08T05:13:29.563Z,83.12
2023-02-08T05:15:32.546Z,83.14
2023-02-08T05:17:35.601Z,83.13
2023-02-08T05:19:38.636Z,83.21
2023-02-08T05:21:41.777Z,83.23
2023-02-08T05:23:46.755Z,83.31
2023-02-08T05:25:49.957Z,83.09
2023-02-08T05:27:53.092Z,83.39
2023-02-08T05:29:59.004Z,83.42
2023-02-08T05:32:02.357Z,83.50
2023-02-08T05:34:05.525Z,83.42
2023-02-08T05:36:09.072Z,83.37
2023-02-08T05:38:12.305Z,83.37
2023-02-08T05:40:15.441Z,83.45
2023-02-08T05:42:18.492Z,83.44
2023-02-08T05:44:21.637Z,83.44
2023-02-08T05:46:26.232Z,83.42
2023-02-08T05:48:30.838Z,83.19
2023-02-08T05:50:34.439Z,83.21
2023-02-08T05:52:37.633Z,83.05
2023-02-08T05:54:40.743Z,82.88
2023-02-08T05:56:43.843Z,83.05
2023-02-08T05:58:46.869Z,82.92
2023-02-08T06:00:49.925Z,82.76
2023-02-08T06:02:54.441Z,82.75
2023-02-08T06:04:57.484Z,82.66
2023-02-08T06:07:00.471Z,82.55
2023-02-08T06:09:03.484Z,82.41
2023-02-08T06:11:07.303Z,82.50
2023-02-08T06:13:10.369Z,82.28
2023-02-08T06:15:13.529Z,82.25
2023-02-08T06:17:16.532Z,82.20
2023-02-08T06:19:21.164Z,82.06
2023-02-08T06:21:24.656Z,82.11
2023-02-08T06:23:27.773Z,82.05
2023-02-08T06:25:30.775Z,81.92
2023-02-08T06:27:33.824Z,81.90
2023-02-08T06:29:36.907Z,81.85
2023-02-08T06:31:40.193Z,81.81
2023-02-08T06:33:43.725Z,81.76
2023-02-08T06:35:48.829Z,81.64
2023-02-08T06:37:51.868Z,81.62
2023-02-08T06:39:54.868Z,81.57
2023-02-08T06:41:58.672Z,81.81
2023-02-08T06:44:02.407Z,81.69
2023-02-08T06:46:08.563Z,81.61
2023-02-08T06:48:11.663Z,81.55
2023-02-08T06:50:15.485Z,81.86
2023-02-08T06:52:20.646Z,82.15
2023-02-08T06:54:23.690Z,81.97
2023-02-08T06:56:26.819Z,81.82
2023-02-08T06:58:29.881Z,82.04
2023-02-08T07:00:32.922Z,81.85
2023-02-08T07:02:36.060Z,82.00
2023-02-08T07:04:39.294Z,81.98
2023-02-08T07:06:42.399Z,81.93
2023-02-08T07:08:48.020Z,81.93
2023-02-08T07:10:51.045Z,81.95
2023-02-08T07:12:54.060Z,81.92
2023-02-08T07:14:57.099Z,81.99
2023-02-08T07:17:00.449Z,81.85
2023-02-08T07:19:03.546Z,81.89
2023-02-08T07:21:07.013Z,81.75
2023-02-08T07:23:11.571Z,81.58
2023-02-08T07:25:16.002Z,81.72
2023-02-08T07:27:19.058Z,81.69
2023-02-08T07:29:22.223Z,81.44
2023-02-08T07:31:25.260Z,81.34
2023-02-08T07:33:28.362Z,81.25
2023-02-08T07:35:31.421Z,81.24
2023-02-08T07:37:34.464Z,81.08
2023-02-08T07:39:37.575Z,81.10
2023-02-08T07:41:44.699Z,81.04
2023-02-08T07:43:47.975Z,80.77
2023-02-08T07:45:51.172Z,80.76
2023-02-08T07:47:54.327Z,80.61
2023-02-08T07:49:57.401Z,80.33
2023-02-08T07:52:00.816Z,80.30
2023-02-08T07:54:03.949Z,80.33
2023-02-08T07:56:08.161Z,80.11
2023-02-08T07:58:12.673Z,80.25
2023-02-08T08:00:17.674Z,80.05
2023-02-08T08:02:20.735Z,80.15
2023-02-08T08:04:23.800Z,79.85
2023-02-08T08:06:27.075Z,79.87
2023-02-08T08:08:30.165Z,79.73
2023-02-08T08:10:33.166Z,79.54
2023-02-08T08:12:36.206Z,79.59
2023-02-08T08:14:40.610Z,79.64
2023-02-08T08:16:43.843Z,79.17
2023-02-08T08:18:47.417Z,79.11
2023-02-08T08:20:50.394Z,78.99
2023-02-08T08:22:53.632Z,78.89
2023-02-08T08:24:58.192Z,78.79
2023-02-08T08:27:01.524Z,78.60
2023-02-08T08:29:05.003Z,78.47
2023-02-08T08:31:12.925Z,78.33
2023-02-08T08:33:16.076Z,78.12
2023-02-08T08:35:19.216Z,77.89
2023-02-08T08:37:22.237Z,77.78
2023-02-08T08:39:27.251Z,77.59
2023-02-08T08:41:30.238Z,77.61
2023-02-08T08:43:33.281Z,77.49
2023-02-08T08:45:36.607Z,77.27
2023-02-08T08:47:44.546Z,77.25
2023-02-08T08:49:48.764Z,77.21
2023-02-08T08:51:51.977Z,76.95
2023-02-08T08:53:54.985Z,76.69
2023-02-08T08:55:58.010Z,76.52
2023-02-08T08:58:01.019Z,76.33
2023-02-08T09:00:05.468Z,76.15
2023-02-08T09:02:08.551Z,75.87
2023-02-08T09:04:13.184Z,75.50
2023-02-08T09:06:16.228Z,75.35
2023-02-08T09:08:19.665Z,75.01
2023-02-08T09:10:22.680Z,74.69
2023-02-08T09:12:25.750Z,74.49
2023-02-08T09:14:28.972Z,74.22
2023-02-08T09:16:32.117Z,74.00
2023-02-08T09:18:35.413Z,73.80
2023-02-08T09:20:44.667Z,73.57
2023-02-08T09:22:53.896Z,73.23
2023-02-08T09:24:57.800Z,72.81
2023-02-08T09:27:02.009Z,72.51
2023-02-08T09:29:06.641Z,72.17
2023-02-08T09:31:10.842Z,72.06
2023-02-08T09:33:13.880Z,71.82
2023-02-08T09:35:16.909Z,71.67
2023-02-08T09:37:21.501Z,71.54
2023-02-08T09:39:26.514Z,71.46
2023-02-08T09:41:46.807Z,70.97
2023-02-08T09:43:59.040Z,70.87
2023-02-08T09:46:06.962Z,70.40
2023-02-08T09:48:19.450Z,70.09
2023-02-08T09:50:29.592Z,69.77
2023-02-08T09:52:40.040Z,69.61
2023-02-08T09:54:48.049Z,69.27
2023-02-08T09:56:52.087Z,68.77
2023-02-08T09:58:57.630Z,68.51
2023-02-08T10:01:03.118Z,68.35
2023-02-08T10:03:16.911Z,67.90
2023-02-08T10:05:23.526Z,68.05
2023-02-08T10:07:27.548Z,67.68
2023-02-08T10:09:31.966Z,67.60
2023-02-08T10:11:49.078Z,67.26
2023-02-08T10:14:05.036Z,66.69
2023-02-08T10:16:19.496Z,66.48
2023-02-08T10:18:35.323Z,66.28
2023-02-08T10:20:57.405Z,66.12
2023-02-08T10:23:09.700Z,66.13
2023-02-08T10:25:23.301Z,65.92
2023-02-08T10:27:39.934Z,65.63
2023-02-08T10:30:11.570Z,65.23
2023-02-08T10:32:35.285Z,65.02
2023-02-08T10:34:45.910Z,64.43
2023-02-08T10:36:48.881Z,63.91
2023-02-08T10:38:54.939Z,63.71
2023-02-08T10:41:01.165Z,63.43
2023-02-08T10:43:20.671Z,63.45
2023-02-08T10:45:28.745Z,63.20
2023-02-08T10:47:44.216Z,62.53
2023-02-08T10:49:55.221Z,62.14
2023-02-08T10:51:58.344Z,61.96
2023-02-08T10:54:01.437Z,61.89
2023-02-08T10:56:07.037Z,61.50
2023-02-08T10:58:18.030Z,61.48
2023-02-08T11:00:24.576Z,61.27
2023-02-08T11:02:30.786Z,61.05
2023-02-08T11:04:33.915Z,60.89
2023-02-08T11:06:37.513Z,60.66
2023-02-08T11:08:55.841Z,60.21
2023-02-08T11:11:04.160Z,60.30
2023-02-08T11:13:19.119Z,59.95
2023-02-08T11:15:24.431Z,59.80
2023-02-08T11:17:30.645Z,59.75
2023-02-08T11:19:39.181Z,59.92
2023-02-08T11:21:45.334Z,59.85
2023-02-08T11:23:52.485Z,59.45
2023-02-08T11:25:56.918Z,58.93
2023-02-08T11:28:01.000Z,58.56
2023-02-08T11:30:23.484Z,58.73
2023-02-08T11:32:26.774Z,58.54
2023-02-08T11:34:32.780Z,58.67
2023-02-08T11:36:37.053Z,58.41
2023-02-08T11:38:44.012Z,58.61
2023-02-08T11:40:47.436Z,58.37
2023-02-08T11:42:51.303Z,58.30
2023-02-08T11:44:55.696Z,58.00
2023-02-08T11:47:02.377Z,57.64
2023-02-08T11:49:05.791Z,57.82
2023-02-08T11:51:09.888Z,57.57
2023-02-08T11:53:27.701Z,57.76
2023-02-08T11:55:33.432Z,57.69
2023-02-08T11:57:36.573Z,57.74
2023-02-08T11:59:39.950Z,57.33
2023-02-08T12:01:43.981Z,57.34
2023-02-08T12:03:51.656Z,57.07
2023-02-08T12:06:12.370Z,56.83
2023-02-08T12:08:25.020Z,56.92
2023-02-08T12:11:01.188Z,56.79
2023-02-08T12:13:30.107Z,56.56
2023-02-08T12:15:57.056Z,56.46
2023-02-08T12:18:13.245Z,56.15
2023-02-08T12:20:36.856Z,55.92
2023-02-08T12:22:43.277Z,56.16
2023-02-08T12:24:51.365Z,55.75
2023-02-08T12:27:07.551Z,55.55
2023-02-08T12:29:23.454Z,55.43
2023-02-08T12:31:37.922Z,54.99
2023-02-08T12:33:48.549Z,54.50
2023-02-08T12:36:10.553Z,54.35
2023-02-08T12:38:41.020Z,54.66
2023-02-08T12:40:53.858Z,54.49
2023-02-08T12:43:08.776Z,54.31
2023-02-08T12:45:40.429Z,54.13
2023-02-08T12:48:04.129Z,53.87
2023-02-08T12:50:20.696Z,53.75
2023-02-08T12:52:35.321Z,53.85
2023-02-08T12:54:42.594Z,53.27
2023-02-08T12:57:00.336Z,53.30
2023-02-08T12:59:13.467Z,53.35
2023-02-08T13:01:20.508Z,53.30
2023-02-08T13:03:36.394Z,53.51
2023-02-08T13:05:53.532Z,53.30
2023-02-08T13:08:07.965Z,53.15
2023-02-08T13:10:20.751Z,52.66
2023-02-08T13:12:28.062Z,52.10
2023-02-08T13:14:35.548Z,52.10
2023-02-08T13:16:44.661Z,51.95
2023-02-08T13:18:51.658Z,52.03
2023-02-08T13:20:59.343Z,51.71
2023-02-08T13:23:13.399Z,51.56
2023-02-08T13:25:30.918Z,51.03
2023-02-08T13:27:33.978Z,50.52
2023-02-08T13:29:37.516Z,49.83
2023-02-08T13:31:44.211Z,49.31
2023-02-08T13:34:01.295Z,48.63
2023-02-08T13:36:05.998Z,47.97
2023-02-08T13:38:23.563Z,47.58
2023-02-08T13:40:30.547Z,47.25
2023-02-08T13:42:39.640Z,46.90
2023-02-08T13:44:42.798Z,46.68
2023-02-08T13:46:47.935Z,46.52
2023-02-08T13:48:53.620Z,46.66
2023-02-08T13:50:57.308Z,46.66
2023-02-08T13:53:00.894Z,46.67
2023-02-08T13:55:55.859Z,46.21
2023-02-08T13:58:01.740Z,46.40
2023-02-08T14:00:23.139Z,46.38
2023-02-08T14:02:30.635Z,46.00
2023-02-08T14:04:36.958Z,46.05
2023-02-08T14:06:50.888Z,46.17
2023-02-08T14:08:59.180Z,46.08
2023-02-08T14:11:12.166Z,46.13
2023-02-08T14:13:29.386Z,45.99
2023-02-08T14:15:38.054Z,45.72
2023-02-08T14:17:44.844Z,45.66
2023-02-08T14:19:58.762Z,44.88
2023-02-08T14:22:04.188Z,44.50
2023-02-08T14:24:09.849Z,43.99
2023-02-08T14:26:24.281Z,43.73
2023-02-08T14:28:33.492Z,43.50
2023-02-08T14:30:38.531Z,42.77
2023-02-08T14:32:44.063Z,42.18
2023-02-08T14:34:47.707Z,41.68
2023-02-08T14:37:04.875Z,41.02
2023-02-08T14:39:24.666Z,40.73
2023-02-08T14:41:49.922Z,40.39
2023-02-08T14:43:54.466Z,40.27
2023-02-08T14:45:58.025Z,40.33
2023-02-08T14:48:17.868Z,40.53
2023-02-08T14:50:25.269Z,40.04
2023-02-08T14:52:29.441Z,39.81
2023-02-08T14:54:38.666Z,39.67
2023-02-08T14:56:51.503Z,39.99
2023-02-08T14:59:01.189Z,39.97
2023-02-08T15:01:08.872Z,40.63
2023-02-08T15:03:16.111Z,40.84
2023-02-08T15:05:23.712Z,41.18
2023-02-08T15:07:33.732Z,41.16
2023-02-08T15:09:40.318Z,41.57
2023-02-08T15:11:43.771Z,41.76
2023-02-08T15:13:50.626Z,41.90
2023-02-08T15:15:57.150Z,42.55
2023-02-08T15:18:02.314Z,43.00
2023-02-08T15:20:08.497Z,43.52
2023-02-08T15:22:19.317Z,43.81
2023-02-08T15:24:24.169Z,43.95
2023-02-08T15:26:28.042Z,44.14
2023-02-08T15:28:34.865Z,44.37
2023-02-08T15:30:40.464Z,44.44
2023-02-08T15:32:44.978Z,44.78
2023-02-08T15:34:54.360Z,45.11
2023-02-08T15:36:58.256Z,45.15
2023-02-08T15:39:04.813Z,45.53
2023-02-08T15:41:10.959Z,45.79
2023-02-08T15:43:14.707Z,45.76
2023-02-08T15:45:24.538Z,46.20
2023-02-08T15:47:29.558Z,46.35
2023-02-08T15:49:37.808Z,46.71
2023-02-08T15:51:41.278Z,46.75
2023-02-08T15:53:46.723Z,47.28
2023-02-08T15:55:53.403Z,47.58
2023-02-08T15:57:59.972Z,48.04
2023-02-08T16:00:05.296Z,48.27
2023-02-08T16:02:23.811Z,48.81
2023-02-08T16:04:27.439Z,48.99
2023-02-08T16:06:36.785Z,49.41
2023-02-08T16:08:44.179Z,49.75
2023-02-08T16:10:50.388Z,50.09
2023-02-08T16:12:54.646Z,50.45
2023-02-08T16:14:58.283Z,50.84
2023-02-08T16:17:01.453Z,51.12
2023-02-08T16:19:06.572Z,51.56
2023-02-08T16:21:28.622Z,51.91
2023-02-08T16:23:34.202Z,52.47
2023-02-08T16:25:44.455Z,52.61
2023-02-08T16:27:49.443Z,53.02
2023-02-08T16:29:52.697Z,53.16
2023-02-08T16:32:07.916Z,53.52
2023-02-08T16:34:17.294Z,53.76
2023-02-08T16:36:24.187Z,53.99
2023-02-08T16:38:27.557Z,54.00
2023-02-08T16:40:48.748Z,54.27
2023-02-08T16:42:51.856Z,54.48
2023-02-08T16:45:16.931Z,54.85
2023-02-08T16:47:27.859Z,54.71
2023-02-08T16:49:30.968Z,54.97
2023-02-08T16:51:35.749Z,54.95
2023-02-08T16:53:42.201Z,55.15
2023-02-08T16:55:47.141Z,55.42
2023-02-08T16:57:52.542Z,55.38
2023-02-08T16:59:56.711Z,55.54
2023-02-08T17:01:59.964Z,55.69
2023-02-08T17:04:03.109Z,55.96
2023-02-08T17:06:06.999Z,56.15
2023-02-08T17:08:15.906Z,56.19
2023-02-08T17:10:27.555Z,56.51
2023-02-08T17:12:33.102Z,56.62
2023-02-08T17:14:36.151Z,57.04
2023-02-08T17:16:39.944Z,57.01
2023-02-08T17:18:43.033Z,57.45
2023-02-08T17:20:47.072Z,57.48
2023-02-08T17:22:51.063Z,57.77
2023-02-08T17:24:54.195Z,58.09
2023-02-08T17:26:57.338Z,58.25
2023-02-08T17:29:01.809Z,58.29
2023-02-08T17:31:05.218Z,58.68
2023-02-08T17:33:11.438Z,58.75
2023-02-08T17:35:17.303Z,59.07
2023-02-08T17:37:21.586Z,59.13
2023-02-08T17:39:26.306Z,59.52
2023-02-08T17:41:29.462Z,59.75
2023-02-08T17:43:32.993Z,59.79
2023-02-08T17:45:41.310Z,60.21
2023-02-08T17:47:45.013Z,60.04
2023-02-08T17:49:48.305Z,60.32
2023-02-08T17:51:51.481Z,60.32
2023-02-08T17:53:55.281Z,60.32
2023-02-08T17:55:58.302Z,60.43
2023-02-08T17:58:01.329Z,60.40
2023-02-08T18:00:05.069Z,60.48
2023-02-08T18:02:16.533Z,60.55
2023-02-08T18:04:19.579Z,60.65
2023-02-08T18:06:23.836Z,60.71
2023-02-08T18:08:27.494Z,60.72
2023-02-08T18:10:30.546Z,60.83
2023-02-08T18:12:35.553Z,60.99
2023-02-08T18:14:39.201Z,61.17
2023-02-08T18:16:42.321Z,61.38
2023-02-08T18:18:47.119Z,61.29
2023-02-08T18:20:50.210Z,61.62
2023-02-08T18:22:53.544Z,61.77
2023-02-08T18:24:56.760Z,61.89
2023-02-08T18:27:00.105Z,61.97
2023-02-08T18:29:05.029Z,62.49
2023-02-08T18:31:10.772Z,62.31
2023-02-08T18:33:14.101Z,62.54
2023-02-08T18:35:18.704Z,62.69
2023-02-08T18:37:22.330Z,62.73
2023-02-08T18:39:25.595Z,62.96
2023-02-08T18:41:30.832Z,63.11
2023-02-08T18:43:34.122Z,63.03
2023-02-08T18:45:37.363Z,63.22
2023-02-08T18:47:40.557Z,63.38
2023-02-08T18:49:43.724Z,63.35
2023-02-08T18:51:48.934Z,63.57
2023-02-08T18:53:54.906Z,63.75
2023-02-08T18:56:00.513Z,63.72
2023-02-08T18:58:20.339Z,63.70
2023-02-08T19:00:24.345Z,63.88
2023-02-08T19:02:28.215Z,63.74
2023-02-08T19:04:31.496Z,63.88
2023-02-08T19:06:37.225Z,64.01
2023-02-08T19:08:42.583Z,64.00
2023-02-08T19:10:45.832Z,64.27
2023-02-08T19:12:48.908Z,64.20
2023-02-08T19:14:52.004Z,64.22
2023-02-08T19:16:55.847Z,64.29
2023-02-08T19:19:00.381Z,64.37
2023-02-08T19:21:07.640Z,64.28
2023-02-08T19:23:10.758Z,64.19
2023-02-08T19:25:15.350Z,64.19
2023-02-08T19:27:18.410Z,64.36
2023-02-08T19:29:22.741Z,64.32
2023-02-08T19:31:28.301Z,64.49
2023-02-08T19:33:31.521Z,64.45
2023-02-08T19:35:38.397Z,64.45
2023-02-08T19:37:42.431Z,64.55
2023-02-08T19:39:45.683Z,64.67
2023-02-08T19:41:51.117Z,64.86
2023-02-08T19:43:54.251Z,64.74
2023-02-08T19:45:57.403Z,64.83
2023-02-08T19:48:00.527Z,64.87
2023-02-08T19:50:03.719Z,65.00
2023-02-08T19:52:06.778Z,65.07
2023-02-08T19:54:17.080Z,65.21
2023-02-08T19:56:20.725Z,65.24
2023-02-08T19:58:25.508Z,65.40
2023-02-08T20:00:28.555Z,65.45
2023-02-08T20:02:31.690Z,65.50
2023-02-08T20:04:34.845Z,65.52
2023-02-08T20:06:38.766Z,65.52
2023-02-08T20:08:41.905Z,65.57
2023-02-08T20:10:46.899Z,65.82
2023-02-08T20:12:50.082Z,65.93
2023-02-08T20:14:54.715Z,65.88
2023-02-08T20:16:57.874Z,65.96
2023-02-08T20:19:01.539Z,66.18
2023-02-08T20:21:05.294Z,66.33
2023-02-08T20:23:22.016Z,66.42
2023-02-08T20:25:25.825Z,66.39
2023-02-08T20:27:32.154Z,66.58
2023-02-08T20:29:35.283Z,66.82
2023-02-08T20:31:42.550Z,66.79
2023-02-08T20:33:46.312Z,66.95
2023-02-08T20:35:49.383Z,67.02
2023-02-08T20:37:52.410Z,67.15
2023-02-08T20:39:55.615Z,67.38
2023-02-08T20:41:58.967Z,67.35
2023-02-08T20:44:02.899Z,67.40
2023-02-08T20:46:07.246Z,67.59
2023-02-08T20:48:11.674Z,67.54
2023-02-08T20:50:19.256Z,67.79
2023-02-08T20:52:23.919Z,68.00
2023-02-08T20:54:27.005Z,68.10
2023-02-08T20:56:32.760Z,68.25
2023-02-08T20:58:36.044Z,68.13
2023-02-08T21:00:42.642Z,68.38
2023-02-08T21:02:46.715Z,68.45
2023-02-08T21:04:51.353Z,68.59
2023-02-08T21:06:54.428Z,68.62
2023-02-08T21:08:58.597Z,68.78
2023-02-08T21:11:02.647Z,68.76
2023-02-08T21:13:05.715Z,68.87
2023-02-08T21:15:10.121Z,69.13
2023-02-08T21:17:13.224Z,69.10
2023-02-08T21:19:17.340Z,69.16
2023-02-08T21:21:22.148Z,69.29
2023-02-08T21:23:25.271Z,69.25
2023-02-08T21:25:28.434Z,69.37
2023-02-08T21:27:31.543Z,69.43
2023-02-08T21:29:34.707Z,69.49
2023-02-08T21:31:38.223Z,69.62
2023-02-08T21:33:42.312Z,69.72
2023-02-08T21:35:45.514Z,69.86
2023-02-08T21:37:49.967Z,69.92
2023-02-08T21:39:52.980Z,69.84
2023-02-08T21:41:56.399Z,70.07
2023-02-08T21:44:02.269Z,70.01
2023-02-08T21:46:06.451Z,70.03
2023-02-08T21:48:09.543Z,70.21
2023-02-08T21:50:30.354Z,70.19
2023-02-08T21:52:51.318Z,70.26
2023-02-08T21:54:55.914Z,70.24
2023-02-08T21:57:00.701Z,70.39
2023-02-08T21:59:03.983Z,70.52
2023-02-08T22:01:07.218Z,70.59
2023-02-08T22:03:10.413Z,70.62
2023-02-08T22:05:13.575Z,70.73
2023-02-08T22:07:17.378Z,70.82
2023-02-08T22:09:21.951Z,70.94
2023-02-08T22:11:26.374Z,70.94
2023-02-08T22:13:29.466Z,70.99
2023-02-08T22:15:34.938Z,71.18
2023-02-08T22:17:38.127Z,71.19
2023-02-08T22:19:42.262Z,71.30
2023-02-08T22:21:45.331Z,71.23
2023-02-08T22:23:48.476Z,71.32
2023-02-08T22:25:51.546Z,71.24
2023-02-08T22:27:56.210Z,71.32
2023-02-08T22:29:59.295Z,71.26
2023-02-08T22:32:02.441Z,71.36
2023-02-08T22:34:05.889Z,71.25
2023-02-08T22:36:10.867Z,71.43
2023-02-08T22:38:13.989Z,71.24
2023-02-08T22:40:17.478Z,71.29
2023-02-08T22:42:20.524Z,71.31
2023-02-08T22:44:24.966Z,71.44
2023-02-08T22:46:28.112Z,71.32
2023-02-08T22:48:31.201Z,71.28
2023-02-08T22:50:34.290Z,71.29
2023-02-08T22:52:37.391Z,71.29
2023-02-08T22:54:40.467Z,71.18
2023-02-08T22:56:43.478Z,71.31
2023-02-08T22:58:46.623Z,71.31
2023-02-08T23:00:51.269Z,71.30
2023-02-08T23:02:54.403Z,71.10
2023-02-08T23:04:57.568Z,71.13
2023-02-08T23:07:01.170Z,71.18
2023-02-08T23:09:06.070Z,70.98
2023-02-08T23:11:09.265Z,70.99
2023-02-08T23:13:12.893Z,71.03
2023-02-08T23:15:15.937Z,70.96
2023-02-08T23:17:20.362Z,71.00
2023-02-08T23:19:23.379Z,71.05
2023-02-08T23:21:26.438Z,71.00
2023-02-08T23:23:29.430Z,71.01
2023-02-08T23:25:32.519Z,71.06
2023-02-08T23:27:35.562Z,71.05
2023-02-08T23:29:38.643Z,71.14
2023-02-08T23:31:42.029Z,70.97
2023-02-08T23:33:46.470Z,71.09
2023-02-08T23:35:49.499Z,71.09
2023-02-08T23:37:52.587Z,71.04
2023-02-08T23:39:55.620Z,71.11
2023-02-08T23:41:58.688Z,71.42
2023-02-08T23:44:01.699Z,71.34
2023-02-08T23:46:07.582Z,71.32
2023-02-08T23:48:10.610Z,71.43
2023-02-08T23:50:15.222Z,71.45
2023-02-08T23:52:18.690Z,71.50
2023-02-08T23:54:21.735Z,71.39
2023-02-08T23:56:26.503Z,71.66
2023-02-08T23:58:29.560Z,71.68
